sensor_id;sensor_type;location;lat;lon;timestamp;temperature;humidity
42743;DHT22;28397;44.552;-0.848;2023-07-30T00:01:54;20.40;99.90
42743;DHT22;28397;44.552;-0.848;2023-07-30T00:04:19;20.30;99.90
42743;DHT22;28397;44.552;-0.848;2023-07-30T00:06:46;20.10;99.90
42743;DHT22;28397;44.552;-0.848;2023-07-30T00:09:12;19.80;99.90
42743;DHT22;28397;44.552;-0.848;2023-07-30T00:11:38;19.70;99.90
42743;DHT22;28397;44.552;-0.848;2023-07-30T00:14:04;19.60;99.90
42743;DHT22;28397;44.552;-0.848;2023-07-30T00:16:29;19.50;99.90
42743;DHT22;28397;44.552;-0.848;2023-07-30T00:18:55;19.50;99.90
42743;DHT22;28397;44.552;-0.848;2023-07-30T00:21:22;19.40;99.90
42743;DHT22;28397;44.552;-0.848;2023-07-30T00:23:47;19.40;99.90
42743;DHT22;28397;44.552;-0.848;2023-07-30T00:26:13;19.30;99.90
42743;DHT22;28397;44.552;-0.848;2023-07-30T00:28:39;19.40;99.90
42743;DHT22;28397;44.552;-0.848;2023-07-30T00:31:04;19.30;99.90
42743;DHT22;28397;44.552;-0.848;2023-07-30T00:33:30;19.30;99.90
42743;DHT22;28397;44.552;-0.848;2023-07-30T00:35:56;19.20;99.90
42743;DHT22;28397;44.552;-0.848;2023-07-30T00:38:21;19.20;99.90
42743;DHT22;28397;44.552;-0.848;2023-07-30T00:40:47;19.20;99.90
42743;DHT22;28397;44.552;-0.848;2023-07-30T00:43:13;19.20;99.90
42743;DHT22;28397;44.552;-0.848;2023-07-30T00:45:40;19.10;99.90
42743;DHT22;28397;44.552;-0.848;2023-07-30T00:48:07;19.10;99.90
42743;DHT22;28397;44.552;-0.848;2023-07-30T00:50:33;19.30;99.90
42743;DHT22;28397;44.552;-0.848;2023-07-30T00:52:59;19.40;99.90
42743;DHT22;28397;44.552;-0.848;2023-07-30T00:55:25;19.60;99.90
42743;DHT22;28397;44.552;-0.848;2023-07-30T00:57:51;19.60;99.90
42743;DHT22;28397;44.552;-0.848;2023-07-30T01:00:17;19.70;99.90
42743;DHT22;28397;44.552;-0.848;2023-07-30T01:02:43;19.70;99.90
42743;DHT22;28397;44.552;-0.848;2023-07-30T01:05:09;19.80;99.90
42743;DHT22;28397;44.552;-0.848;2023-07-30T01:07:35;19.80;99.90
42743;DHT22;28397;44.552;-0.848;2023-07-30T01:10:01;19.90;99.90
42743;DHT22;28397;44.552;-0.848;2023-07-30T01:12:30;19.70;99.90
42743;DHT22;28397;44.552;-0.848;2023-07-30T01:14:57;19.80;99.90
42743;DHT22;28397;44.552;-0.848;2023-07-30T01:17:23;19.80;99.90
42743;DHT22;28397;44.552;-0.848;2023-07-30T01:19:49;19.70;99.90
42743;DHT22;28397;44.552;-0.848;2023-07-30T01:22:15;19.50;99.90
42743;DHT22;28397;44.552;-0.848;2023-07-30T01:24:42;19.40;99.90
42743;DHT22;28397;44.552;-0.848;2023-07-30T01:27:11;19.20;99.90
42743;DHT22;28397;44.552;-0.848;2023-07-30T01:29:42;19.10;99.90
42743;DHT22;28397;44.552;-0.848;2023-07-30T01:32:11;19.00;99.90
42743;DHT22;28397;44.552;-0.848;2023-07-30T01:34:38;18.90;99.90
42743;DHT22;28397;44.552;-0.848;2023-07-30T01:37:10;18.90;99.90
42743;DHT22;28397;44.552;-0.848;2023-07-30T01:39:38;18.80;99.90
42743;DHT22;28397;44.552;-0.848;2023-07-30T01:42:05;18.70;99.90
42743;DHT22;28397;44.552;-0.848;2023-07-30T01:44:31;18.70;99.90
42743;DHT22;28397;44.552;-0.848;2023-07-30T01:46:56;18.60;99.90
42743;DHT22;28397;44.552;-0.848;2023-07-30T01:49:22;18.50;99.90
42743;DHT22;28397;44.552;-0.848;2023-07-30T01:51:48;18.50;99.90
42743;DHT22;28397;44.552;-0.848;2023-07-30T01:54:14;18.50;99.90
42743;DHT22;28397;44.552;-0.848;2023-07-30T01:56:40;18.50;99.90
42743;DHT22;28397;44.552;-0.848;2023-07-30T01:59:05;18.50;99.90
42743;DHT22;28397;44.552;-0.848;2023-07-30T02:01:31;18.50;99.90
42743;DHT22;28397;44.552;-0.848;2023-07-30T02:03:57;18.40;99.90
42743;DHT22;28397;44.552;-0.848;2023-07-30T02:06:22;18.50;99.90
42743;DHT22;28397;44.552;-0.848;2023-07-30T02:08:48;18.70;99.90
42743;DHT22;28397;44.552;-0.848;2023-07-30T02:11:14;18.80;99.90
42743;DHT22;28397;44.552;-0.848;2023-07-30T02:13:39;18.80;99.90
42743;DHT22;28397;44.552;-0.848;2023-07-30T02:16:05;18.90;99.90
42743;DHT22;28397;44.552;-0.848;2023-07-30T02:18:31;18.90;99.90
42743;DHT22;28397;44.552;-0.848;2023-07-30T02:20:56;19.00;99.90
42743;DHT22;28397;44.552;-0.848;2023-07-30T02:23:22;19.00;99.90
42743;DHT22;28397;44.552;-0.848;2023-07-30T02:25:48;19.00;99.90
42743;DHT22;28397;44.552;-0.848;2023-07-30T02:28:13;18.90;99.90
42743;DHT22;28397;44.552;-0.848;2023-07-30T02:30:39;18.80;99.90
42743;DHT22;28397;44.552;-0.848;2023-07-30T02:33:05;18.90;99.90
42743;DHT22;28397;44.552;-0.848;2023-07-30T02:35:30;18.90;99.90
42743;DHT22;28397;44.552;-0.848;2023-07-30T02:37:56;18.60;99.90
42743;DHT22;28397;44.552;-0.848;2023-07-30T02:40:22;18.40;99.90
42743;DHT22;28397;44.552;-0.848;2023-07-30T02:42:47;18.30;99.90
42743;DHT22;28397;44.552;-0.848;2023-07-30T02:45:13;18.10;99.90
42743;DHT22;28397;44.552;-0.848;2023-07-30T02:47:39;18.00;99.90
42743;DHT22;28397;44.552;-0.848;2023-07-30T02:50:05;18.00;99.90
42743;DHT22;28397;44.552;-0.848;2023-07-30T02:52:34;17.90;99.90
42743;DHT22;28397;44.552;-0.848;2023-07-30T02:54:59;17.80;99.90
42743;DHT22;28397;44.552;-0.848;2023-07-30T02:57:25;17.80;99.90
42743;DHT22;28397;44.552;-0.848;2023-07-30T02:59:51;17.60;99.90
42743;DHT22;28397;44.552;-0.848;2023-07-30T03:02:16;17.60;99.90
42743;DHT22;28397;44.552;-0.848;2023-07-30T03:04:42;17.60;99.90
42743;DHT22;28397;44.552;-0.848;2023-07-30T03:07:09;17.60;99.90
42743;DHT22;28397;44.552;-0.848;2023-07-30T03:09:35;17.50;99.90
42743;DHT22;28397;44.552;-0.848;2023-07-30T03:12:00;17.50;99.90
42743;DHT22;28397;44.552;-0.848;2023-07-30T03:14:26;17.40;99.90
42743;DHT22;28397;44.552;-0.848;2023-07-30T03:16:52;17.40;99.90
42743;DHT22;28397;44.552;-0.848;2023-07-30T03:19:18;17.50;99.90
42743;DHT22;28397;44.552;-0.848;2023-07-30T03:21:43;17.50;99.90
42743;DHT22;28397;44.552;-0.848;2023-07-30T03:24:09;17.80;99.90
42743;DHT22;28397;44.552;-0.848;2023-07-30T03:26:34;18.10;99.90
42743;DHT22;28397;44.552;-0.848;2023-07-30T03:29:00;18.30;99.90
42743;DHT22;28397;44.552;-0.848;2023-07-30T03:31:26;18.40;99.90
42743;DHT22;28397;44.552;-0.848;2023-07-30T03:33:53;18.50;99.90
42743;DHT22;28397;44.552;-0.848;2023-07-30T03:36:19;18.50;99.90
42743;DHT22;28397;44.552;-0.848;2023-07-30T03:38:45;18.50;99.90
42743;DHT22;28397;44.552;-0.848;2023-07-30T03:41:11;18.60;99.90
42743;DHT22;28397;44.552;-0.848;2023-07-30T03:43:37;18.60;99.90
42743;DHT22;28397;44.552;-0.848;2023-07-30T03:46:03;18.60;99.90
42743;DHT22;28397;44.552;-0.848;2023-07-30T03:48:29;18.60;99.90
42743;DHT22;28397;44.552;-0.848;2023-07-30T03:50:54;18.50;99.90
42743;DHT22;28397;44.552;-0.848;2023-07-30T03:53:21;18.40;99.90
42743;DHT22;28397;44.552;-0.848;2023-07-30T03:55:46;18.30;99.90
42743;DHT22;28397;44.552;-0.848;2023-07-30T03:58:12;18.20;99.90
42743;DHT22;28397;44.552;-0.848;2023-07-30T04:00:38;18.00;99.90
42743;DHT22;28397;44.552;-0.848;2023-07-30T04:03:04;17.80;99.90
42743;DHT22;28397;44.552;-0.848;2023-07-30T04:05:30;17.60;99.90
42743;DHT22;28397;44.552;-0.848;2023-07-30T04:07:56;17.60;99.90
42743;DHT22;28397;44.552;-0.848;2023-07-30T04:10:22;17.60;99.90
42743;DHT22;28397;44.552;-0.848;2023-07-30T04:12:48;17.60;99.90
42743;DHT22;28397;44.552;-0.848;2023-07-30T04:15:15;17.50;99.90
42743;DHT22;28397;44.552;-0.848;2023-07-30T04:17:41;17.60;99.90
42743;DHT22;28397;44.552;-0.848;2023-07-30T04:20:08;17.60;99.90
42743;DHT22;28397;44.552;-0.848;2023-07-30T04:22:35;17.60;99.90
42743;DHT22;28397;44.552;-0.848;2023-07-30T04:25:01;17.60;99.90
42743;DHT22;28397;44.552;-0.848;2023-07-30T04:27:26;17.60;99.90
42743;DHT22;28397;44.552;-0.848;2023-07-30T04:29:52;17.60;99.90
42743;DHT22;28397;44.552;-0.848;2023-07-30T04:32:18;17.60;99.90
42743;DHT22;28397;44.552;-0.848;2023-07-30T04:34:43;17.60;99.90
42743;DHT22;28397;44.552;-0.848;2023-07-30T04:37:09;17.80;99.90
42743;DHT22;28397;44.552;-0.848;2023-07-30T04:39:35;18.00;99.90
42743;DHT22;28397;44.552;-0.848;2023-07-30T04:42:02;18.10;99.90
42743;DHT22;28397;44.552;-0.848;2023-07-30T04:44:27;18.10;99.90
42743;DHT22;28397;44.552;-0.848;2023-07-30T04:46:53;18.20;99.90
42743;DHT22;28397;44.552;-0.848;2023-07-30T04:49:19;18.20;99.90
42743;DHT22;28397;44.552;-0.848;2023-07-30T04:51:44;18.20;99.90
42743;DHT22;28397;44.552;-0.848;2023-07-30T04:54:10;18.20;99.90
42743;DHT22;28397;44.552;-0.848;2023-07-30T04:56:36;18.30;99.90
42743;DHT22;28397;44.552;-0.848;2023-07-30T04:59:02;18.30;99.90
42743;DHT22;28397;44.552;-0.848;2023-07-30T05:01:28;18.30;99.90
42743;DHT22;28397;44.552;-0.848;2023-07-30T05:03:54;18.30;99.90
42743;DHT22;28397;44.552;-0.848;2023-07-30T05:06:20;18.20;99.90
42743;DHT22;28397;44.552;-0.848;2023-07-30T05:08:45;18.00;99.90
42743;DHT22;28397;44.552;-0.848;2023-07-30T05:11:11;17.90;99.90
42743;DHT22;28397;44.552;-0.848;2023-07-30T05:13:37;17.90;99.90
42743;DHT22;28397;44.552;-0.848;2023-07-30T05:16:02;17.70;99.90
42743;DHT22;28397;44.552;-0.848;2023-07-30T05:18:28;17.60;99.90
42743;DHT22;28397;44.552;-0.848;2023-07-30T05:20:55;17.60;99.90
42743;DHT22;28397;44.552;-0.848;2023-07-30T05:23:20;17.40;99.90
42743;DHT22;28397;44.552;-0.848;2023-07-30T05:25:46;17.50;99.90
42743;DHT22;28397;44.552;-0.848;2023-07-30T05:28:12;17.40;99.90
42743;DHT22;28397;44.552;-0.848;2023-07-30T05:30:38;17.40;99.90
42743;DHT22;28397;44.552;-0.848;2023-07-30T05:33:04;17.40;99.90
42743;DHT22;28397;44.552;-0.848;2023-07-30T05:35:29;17.40;99.90
42743;DHT22;28397;44.552;-0.848;2023-07-30T05:37:55;17.40;99.90
42743;DHT22;28397;44.552;-0.848;2023-07-30T05:40:21;17.40;99.90
42743;DHT22;28397;44.552;-0.848;2023-07-30T05:42:47;17.40;99.90
42743;DHT22;28397;44.552;-0.848;2023-07-30T05:45:13;17.50;99.90
42743;DHT22;28397;44.552;-0.848;2023-07-30T05:47:38;17.60;99.90
42743;DHT22;28397;44.552;-0.848;2023-07-30T05:50:08;17.60;99.90
42743;DHT22;28397;44.552;-0.848;2023-07-30T05:52:34;17.70;99.90
42743;DHT22;28397;44.552;-0.848;2023-07-30T05:55:00;17.90;99.90
42743;DHT22;28397;44.552;-0.848;2023-07-30T05:57:25;18.10;99.90
42743;DHT22;28397;44.552;-0.848;2023-07-30T05:59:51;18.20;99.90
42743;DHT22;28397;44.552;-0.848;2023-07-30T06:02:17;18.30;99.90
42743;DHT22;28397;44.552;-0.848;2023-07-30T06:04:43;18.40;99.90
42743;DHT22;28397;44.552;-0.848;2023-07-30T06:07:09;18.50;99.90
42743;DHT22;28397;44.552;-0.848;2023-07-30T06:09:36;18.60;99.90
42743;DHT22;28397;44.552;-0.848;2023-07-30T06:12:02;18.50;99.90
42743;DHT22;28397;44.552;-0.848;2023-07-30T06:14:27;18.60;99.90
42743;DHT22;28397;44.552;-0.848;2023-07-30T06:16:53;18.60;99.90
42743;DHT22;28397;44.552;-0.848;2023-07-30T06:19:19;18.60;99.90
42743;DHT22;28397;44.552;-0.848;2023-07-30T06:21:45;18.50;99.90
42743;DHT22;28397;44.552;-0.848;2023-07-30T06:24:11;18.50;99.90
42743;DHT22;28397;44.552;-0.848;2023-07-30T06:26:37;18.50;99.90
42743;DHT22;28397;44.552;-0.848;2023-07-30T06:29:03;18.50;99.90
42743;DHT22;28397;44.552;-0.848;2023-07-30T06:31:29;18.50;99.90
42743;DHT22;28397;44.552;-0.848;2023-07-30T06:33:55;18.50;99.90
42743;DHT22;28397;44.552;-0.848;2023-07-30T06:36:21;18.50;99.90
42743;DHT22;28397;44.552;-0.848;2023-07-30T06:38:46;18.50;99.90
42743;DHT22;28397;44.552;-0.848;2023-07-30T06:41:13;18.50;99.90
42743;DHT22;28397;44.552;-0.848;2023-07-30T06:43:39;18.50;99.90
42743;DHT22;28397;44.552;-0.848;2023-07-30T06:46:05;18.60;99.90
42743;DHT22;28397;44.552;-0.848;2023-07-30T06:48:30;18.60;99.90
42743;DHT22;28397;44.552;-0.848;2023-07-30T06:50:57;18.60;99.90
42743;DHT22;28397;44.552;-0.848;2023-07-30T06:53:22;18.50;99.90
42743;DHT22;28397;44.552;-0.848;2023-07-30T06:55:48;18.50;99.90
42743;DHT22;28397;44.552;-0.848;2023-07-30T06:58:14;18.50;99.90
42743;DHT22;28397;44.552;-0.848;2023-07-30T07:00:39;18.60;99.90
42743;DHT22;28397;44.552;-0.848;2023-07-30T07:03:05;18.70;99.90
42743;DHT22;28397;44.552;-0.848;2023-07-30T07:05:31;18.90;99.90
42743;DHT22;28397;44.552;-0.848;2023-07-30T07:07:56;19.00;99.90
42743;DHT22;28397;44.552;-0.848;2023-07-30T07:10:22;19.20;99.90
42743;DHT22;28397;44.552;-0.848;2023-07-30T07:12:48;19.40;99.90
42743;DHT22;28397;44.552;-0.848;2023-07-30T07:15:14;19.60;99.90
42743;DHT22;28397;44.552;-0.848;2023-07-30T07:17:39;19.70;99.90
42743;DHT22;28397;44.552;-0.848;2023-07-30T07:20:06;19.80;99.90
42743;DHT22;28397;44.552;-0.848;2023-07-30T07:22:33;19.90;99.90
42743;DHT22;28397;44.552;-0.848;2023-07-30T07:24:59;19.90;99.90
42743;DHT22;28397;44.552;-0.848;2023-07-30T07:27:25;20.00;99.90
42743;DHT22;28397;44.552;-0.848;2023-07-30T07:29:51;20.10;99.90
42743;DHT22;28397;44.552;-0.848;2023-07-30T07:32:18;20.20;99.90
42743;DHT22;28397;44.552;-0.848;2023-07-30T07:34:49;20.30;99.90
42743;DHT22;28397;44.552;-0.848;2023-07-30T07:37:16;20.30;99.90
42743;DHT22;28397;44.552;-0.848;2023-07-30T07:39:44;20.30;99.90
42743;DHT22;28397;44.552;-0.848;2023-07-30T07:42:10;20.30;99.90
42743;DHT22;28397;44.552;-0.848;2023-07-30T07:44:36;20.30;99.90
42743;DHT22;28397;44.552;-0.848;2023-07-30T07:47:01;20.20;99.90
42743;DHT22;28397;44.552;-0.848;2023-07-30T07:49:27;20.20;99.90
42743;DHT22;28397;44.552;-0.848;2023-07-30T07:51:53;20.20;99.90
42743;DHT22;28397;44.552;-0.848;2023-07-30T07:54:18;20.20;99.90
42743;DHT22;28397;44.552;-0.848;2023-07-30T07:56:44;20.20;99.90
42743;DHT22;28397;44.552;-0.848;2023-07-30T07:59:09;20.30;99.90
42743;DHT22;28397;44.552;-0.848;2023-07-30T08:01:36;20.30;99.90
42743;DHT22;28397;44.552;-0.848;2023-07-30T08:04:02;20.30;99.90
42743;DHT22;28397;44.552;-0.848;2023-07-30T08:06:28;20.30;99.90
42743;DHT22;28397;44.552;-0.848;2023-07-30T08:08:53;20.30;99.90
42743;DHT22;28397;44.552;-0.848;2023-07-30T08:11:19;20.30;99.90
42743;DHT22;28397;44.552;-0.848;2023-07-30T08:13:45;20.30;99.90
42743;DHT22;28397;44.552;-0.848;2023-07-30T08:16:11;20.30;99.90
42743;DHT22;28397;44.552;-0.848;2023-07-30T08:18:37;20.40;99.90
42743;DHT22;28397;44.552;-0.848;2023-07-30T08:21:03;20.50;99.90
42743;DHT22;28397;44.552;-0.848;2023-07-30T08:23:29;20.70;99.90
42743;DHT22;28397;44.552;-0.848;2023-07-30T08:25:54;20.80;99.90
42743;DHT22;28397;44.552;-0.848;2023-07-30T08:28:20;21.00;99.90
42743;DHT22;28397;44.552;-0.848;2023-07-30T08:30:46;21.10;99.90
42743;DHT22;28397;44.552;-0.848;2023-07-30T08:33:12;21.10;99.90
42743;DHT22;28397;44.552;-0.848;2023-07-30T08:35:38;21.30;99.90
42743;DHT22;28397;44.552;-0.848;2023-07-30T08:38:03;21.40;99.90
42743;DHT22;28397;44.552;-0.848;2023-07-30T08:40:29;21.50;99.90
42743;DHT22;28397;44.552;-0.848;2023-07-30T08:42:55;21.50;99.90
42743;DHT22;28397;44.552;-0.848;2023-07-30T08:45:21;21.60;99.90
42743;DHT22;28397;44.552;-0.848;2023-07-30T08:47:47;21.70;99.90
42743;DHT22;28397;44.552;-0.848;2023-07-30T08:50:13;21.70;99.90
42743;DHT22;28397;44.552;-0.848;2023-07-30T08:52:39;21.80;99.90
42743;DHT22;28397;44.552;-0.848;2023-07-30T08:55:06;21.80;99.90
42743;DHT22;28397;44.552;-0.848;2023-07-30T08:57:33;21.60;99.90
42743;DHT22;28397;44.552;-0.848;2023-07-30T09:00:05;21.50;99.90
42743;DHT22;28397;44.552;-0.848;2023-07-30T09:02:38;21.50;99.90
42743;DHT22;28397;44.552;-0.848;2023-07-30T09:05:04;21.40;99.90
42743;DHT22;28397;44.552;-0.848;2023-07-30T09:07:31;21.40;99.90
42743;DHT22;28397;44.552;-0.848;2023-07-30T09:09:57;21.30;99.90
42743;DHT22;28397;44.552;-0.848;2023-07-30T09:12:32;21.40;99.90
42743;DHT22;28397;44.552;-0.848;2023-07-30T09:14:58;21.40;99.90
42743;DHT22;28397;44.552;-0.848;2023-07-30T09:17:25;21.40;99.90
42743;DHT22;28397;44.552;-0.848;2023-07-30T09:19:52;21.40;99.90
42743;DHT22;28397;44.552;-0.848;2023-07-30T09:22:35;21.30;99.90
42743;DHT22;28397;44.552;-0.848;2023-07-30T09:25:04;21.30;99.90
42743;DHT22;28397;44.552;-0.848;2023-07-30T09:27:31;21.40;99.90
42743;DHT22;28397;44.552;-0.848;2023-07-30T09:29:58;21.50;99.90
42743;DHT22;28397;44.552;-0.848;2023-07-30T09:32:28;21.50;99.90
42743;DHT22;28397;44.552;-0.848;2023-07-30T09:35:10;21.60;99.90
42743;DHT22;28397;44.552;-0.848;2023-07-30T09:37:38;21.70;99.90
42743;DHT22;28397;44.552;-0.848;2023-07-30T09:40:14;21.80;99.90
42743;DHT22;28397;44.552;-0.848;2023-07-30T09:42:46;21.90;99.90
42743;DHT22;28397;44.552;-0.848;2023-07-30T09:45:23;22.20;99.90
42743;DHT22;28397;44.552;-0.848;2023-07-30T09:47:50;22.20;99.90
42743;DHT22;28397;44.552;-0.848;2023-07-30T09:50:16;22.40;99.90
42743;DHT22;28397;44.552;-0.848;2023-07-30T09:52:43;22.40;99.90
42743;DHT22;28397;44.552;-0.848;2023-07-30T09:55:09;22.30;99.90
42743;DHT22;28397;44.552;-0.848;2023-07-30T09:57:36;22.40;99.90
42743;DHT22;28397;44.552;-0.848;2023-07-30T10:00:05;22.60;99.90
42743;DHT22;28397;44.552;-0.848;2023-07-30T10:02:40;22.60;99.90
42743;DHT22;28397;44.552;-0.848;2023-07-30T10:05:11;22.60;99.90
42743;DHT22;28397;44.552;-0.848;2023-07-30T10:07:55;22.70;99.90
42743;DHT22;28397;44.552;-0.848;2023-07-30T10:10:24;22.70;99.90
42743;DHT22;28397;44.552;-0.848;2023-07-30T10:12:51;22.70;99.90
42743;DHT22;28397;44.552;-0.848;2023-07-30T10:15:20;22.60;99.90
42743;DHT22;28397;44.552;-0.848;2023-07-30T10:17:52;22.50;99.90
42743;DHT22;28397;44.552;-0.848;2023-07-30T10:20:26;22.40;99.90
42743;DHT22;28397;44.552;-0.848;2023-07-30T10:22:53;22.50;99.90
42743;DHT22;28397;44.552;-0.848;2023-07-30T10:31:03;22.50;99.90
42743;DHT22;28397;44.552;-0.848;2023-07-30T10:36:11;22.30;99.90
42743;DHT22;28397;44.552;-0.848;2023-07-30T10:38:37;22.30;99.90
42743;DHT22;28397;44.552;-0.848;2023-07-30T10:43:35;22.50;99.90
42743;DHT22;28397;44.552;-0.848;2023-07-30T10:46:01;22.30;99.90
42743;DHT22;28397;44.552;-0.848;2023-07-30T10:48:37;22.20;99.90
42743;DHT22;28397;44.552;-0.848;2023-07-30T10:51:06;22.30;99.90
42743;DHT22;28397;44.552;-0.848;2023-07-30T10:53:32;22.30;99.90
42743;DHT22;28397;44.552;-0.848;2023-07-30T10:56:00;22.30;99.90
42743;DHT22;28397;44.552;-0.848;2023-07-30T10:58:30;22.30;99.90
42743;DHT22;28397;44.552;-0.848;2023-07-30T11:00:56;22.40;99.90
42743;DHT22;28397;44.552;-0.848;2023-07-30T11:03:26;22.60;99.90
42743;DHT22;28397;44.552;-0.848;2023-07-30T11:05:55;22.70;99.90
42743;DHT22;28397;44.552;-0.848;2023-07-30T11:11:00;23.00;99.90
42743;DHT22;28397;44.552;-0.848;2023-07-30T11:13:26;23.10;99.90
42743;DHT22;28397;44.552;-0.848;2023-07-30T11:15:52;23.10;99.90
42743;DHT22;28397;44.552;-0.848;2023-07-30T11:18:18;23.20;99.90
42743;DHT22;28397;44.552;-0.848;2023-07-30T11:20:43;23.20;99.90
42743;DHT22;28397;44.552;-0.848;2023-07-30T11:23:23;23.10;99.90
42743;DHT22;28397;44.552;-0.848;2023-07-30T11:25:49;23.20;99.90
42743;DHT22;28397;44.552;-0.848;2023-07-30T11:28:32;23.20;99.90
42743;DHT22;28397;44.552;-0.848;2023-07-30T11:31:06;23.50;99.90
42743;DHT22;28397;44.552;-0.848;2023-07-30T11:33:32;23.40;99.90
42743;DHT22;28397;44.552;-0.848;2023-07-30T11:36:01;23.40;99.90
42743;DHT22;28397;44.552;-0.848;2023-07-30T11:38:28;23.20;99.90
42743;DHT22;28397;44.552;-0.848;2023-07-30T11:40:54;23.30;99.90
42743;DHT22;28397;44.552;-0.848;2023-07-30T11:43:22;23.30;99.90
42743;DHT22;28397;44.552;-0.848;2023-07-30T11:45:48;23.20;99.90
42743;DHT22;28397;44.552;-0.848;2023-07-30T11:48:13;23.20;99.90
42743;DHT22;28397;44.552;-0.848;2023-07-30T11:50:50;23.00;99.90
42743;DHT22;28397;44.552;-0.848;2023-07-30T11:53:18;23.00;99.90
42743;DHT22;28397;44.552;-0.848;2023-07-30T11:55:44;23.20;99.90
42743;DHT22;28397;44.552;-0.848;2023-07-30T11:58:12;23.20;99.90
42743;DHT22;28397;44.552;-0.848;2023-07-30T12:00:41;23.20;99.90
42743;DHT22;28397;44.552;-0.848;2023-07-30T12:03:10;23.20;99.90
42743;DHT22;28397;44.552;-0.848;2023-07-30T12:05:38;23.10;99.90
42743;DHT22;28397;44.552;-0.848;2023-07-30T12:08:05;23.30;99.90
42743;DHT22;28397;44.552;-0.848;2023-07-30T12:10:46;23.40;99.90
42743;DHT22;28397;44.552;-0.848;2023-07-30T12:13:19;23.20;99.90
42743;DHT22;28397;44.552;-0.848;2023-07-30T12:15:54;22.90;99.90
42743;DHT22;28397;44.552;-0.848;2023-07-30T12:18:22;23.10;99.90
42743;DHT22;28397;44.552;-0.848;2023-07-30T12:20:49;23.40;99.90
42743;DHT22;28397;44.552;-0.848;2023-07-30T12:23:19;23.40;99.90
42743;DHT22;28397;44.552;-0.848;2023-07-30T12:25:45;23.70;99.90
42743;DHT22;28397;44.552;-0.848;2023-07-30T12:28:11;24.00;99.90
42743;DHT22;28397;44.552;-0.848;2023-07-30T12:30:37;24.00;99.90
42743;DHT22;28397;44.552;-0.848;2023-07-30T12:33:03;24.10;99.90
42743;DHT22;28397;44.552;-0.848;2023-07-30T12:35:32;24.20;99.90
42743;DHT22;28397;44.552;-0.848;2023-07-30T12:38:01;24.20;99.90
42743;DHT22;28397;44.552;-0.848;2023-07-30T12:40:27;24.10;99.90
42743;DHT22;28397;44.552;-0.848;2023-07-30T12:43:02;24.40;99.90
42743;DHT22;28397;44.552;-0.848;2023-07-30T12:45:29;24.40;99.90
42743;DHT22;28397;44.552;-0.848;2023-07-30T12:47:54;24.50;99.90
42743;DHT22;28397;44.552;-0.848;2023-07-30T12:50:20;24.50;99.90
42743;DHT22;28397;44.552;-0.848;2023-07-30T12:52:46;24.20;99.90
42743;DHT22;28397;44.552;-0.848;2023-07-30T12:55:11;24.20;99.90
42743;DHT22;28397;44.552;-0.848;2023-07-30T12:57:37;24.40;99.90
42743;DHT22;28397;44.552;-0.848;2023-07-30T13:00:03;24.30;99.90
42743;DHT22;28397;44.552;-0.848;2023-07-30T13:02:30;24.00;99.90
42743;DHT22;28397;44.552;-0.848;2023-07-30T13:04:59;23.60;99.90
42743;DHT22;28397;44.552;-0.848;2023-07-30T13:07:25;23.80;99.90
42743;DHT22;28397;44.552;-0.848;2023-07-30T13:10:02;23.80;99.90
42743;DHT22;28397;44.552;-0.848;2023-07-30T13:12:28;23.80;99.90
42743;DHT22;28397;44.552;-0.848;2023-07-30T13:14:54;23.70;99.90
42743;DHT22;28397;44.552;-0.848;2023-07-30T13:17:20;23.50;99.90
42743;DHT22;28397;44.552;-0.848;2023-07-30T13:19:45;23.70;99.90
42743;DHT22;28397;44.552;-0.848;2023-07-30T13:22:11;24.00;99.90
42743;DHT22;28397;44.552;-0.848;2023-07-30T13:24:37;24.10;99.90
42743;DHT22;28397;44.552;-0.848;2023-07-30T13:27:03;24.30;99.90
42743;DHT22;28397;44.552;-0.848;2023-07-30T13:29:28;24.20;99.90
42743;DHT22;28397;44.552;-0.848;2023-07-30T13:31:54;24.20;99.90
42743;DHT22;28397;44.552;-0.848;2023-07-30T13:34:20;24.40;99.90
42743;DHT22;28397;44.552;-0.848;2023-07-30T13:36:45;24.40;99.90
42743;DHT22;28397;44.552;-0.848;2023-07-30T13:39:11;24.80;99.90
42743;DHT22;28397;44.552;-0.848;2023-07-30T13:41:36;25.00;99.90
42743;DHT22;28397;44.552;-0.848;2023-07-30T13:44:05;25.10;99.90
42743;DHT22;28397;44.552;-0.848;2023-07-30T13:46:31;25.30;99.90
42743;DHT22;28397;44.552;-0.848;2023-07-30T13:48:56;25.40;99.90
42743;DHT22;28397;44.552;-0.848;2023-07-30T13:51:22;25.50;99.90
42743;DHT22;28397;44.552;-0.848;2023-07-30T13:53:48;25.40;99.90
42743;DHT22;28397;44.552;-0.848;2023-07-30T13:56:14;25.70;99.90
42743;DHT22;28397;44.552;-0.848;2023-07-30T13:58:39;25.50;99.90
42743;DHT22;28397;44.552;-0.848;2023-07-30T14:01:06;25.60;99.90
42743;DHT22;28397;44.552;-0.848;2023-07-30T14:03:34;25.70;99.90
42743;DHT22;28397;44.552;-0.848;2023-07-30T14:05:59;25.90;99.90
42743;DHT22;28397;44.552;-0.848;2023-07-30T14:08:25;26.10;99.90
42743;DHT22;28397;44.552;-0.848;2023-07-30T14:10:51;25.80;99.90
42743;DHT22;28397;44.552;-0.848;2023-07-30T14:13:16;26.00;99.90
42743;DHT22;28397;44.552;-0.848;2023-07-30T14:15:42;25.70;99.90
42743;DHT22;28397;44.552;-0.848;2023-07-30T14:18:08;25.40;99.90
42743;DHT22;28397;44.552;-0.848;2023-07-30T14:20:34;25.30;99.90
42743;DHT22;28397;44.552;-0.848;2023-07-30T14:23:03;25.30;99.90
42743;DHT22;28397;44.552;-0.848;2023-07-30T14:25:29;25.30;99.90
42743;DHT22;28397;44.552;-0.848;2023-07-30T14:27:55;25.20;99.90
42743;DHT22;28397;44.552;-0.848;2023-07-30T14:30:21;25.30;99.90
42743;DHT22;28397;44.552;-0.848;2023-07-30T14:32:47;25.60;99.90
42743;DHT22;28397;44.552;-0.848;2023-07-30T14:35:12;25.70;99.90
42743;DHT22;28397;44.552;-0.848;2023-07-30T14:37:38;25.70;99.90
42743;DHT22;28397;44.552;-0.848;2023-07-30T14:40:04;25.80;99.90
42743;DHT22;28397;44.552;-0.848;2023-07-30T14:42:30;26.10;99.90
42743;DHT22;28397;44.552;-0.848;2023-07-30T14:44:55;26.20;99.90
42743;DHT22;28397;44.552;-0.848;2023-07-30T14:47:21;26.40;99.90
42743;DHT22;28397;44.552;-0.848;2023-07-30T14:49:48;26.00;99.90
42743;DHT22;28397;44.552;-0.848;2023-07-30T14:52:13;25.80;99.90
42743;DHT22;28397;44.552;-0.848;2023-07-30T14:54:39;26.10;99.90
42743;DHT22;28397;44.552;-0.848;2023-07-30T14:57:05;26.40;99.90
42743;DHT22;28397;44.552;-0.848;2023-07-30T14:59:31;26.70;99.90
42743;DHT22;28397;44.552;-0.848;2023-07-30T15:01:56;26.80;99.90
42743;DHT22;28397;44.552;-0.848;2023-07-30T15:04:22;26.70;99.90
42743;DHT22;28397;44.552;-0.848;2023-07-30T15:06:49;26.90;99.90
42743;DHT22;28397;44.552;-0.848;2023-07-30T15:09:14;26.50;99.90
42743;DHT22;28397;44.552;-0.848;2023-07-30T15:11:40;26.30;99.90
42743;DHT22;28397;44.552;-0.848;2023-07-30T15:14:06;26.40;99.90
42743;DHT22;28397;44.552;-0.848;2023-07-30T15:16:32;26.50;99.90
42743;DHT22;28397;44.552;-0.848;2023-07-30T15:18:57;26.60;99.90
42743;DHT22;28397;44.552;-0.848;2023-07-30T15:21:23;26.80;99.90
42743;DHT22;28397;44.552;-0.848;2023-07-30T15:23:49;26.50;99.90
42743;DHT22;28397;44.552;-0.848;2023-07-30T15:26:14;26.40;99.90